Time;durP1;ratioP1;P1;durP2;ratioP2;P2;SDS_P1;SDS_P2;PMS_P1;PMS_P2;Temp;Humidity;BMP_temperature;BMP_pressure;BME280_temperature;BME280_humidity;BME280_pressure;Samples;Min_cycle;Max_cycle;Signal;HPM_P1;HPM_P2
2023/10/26 00:02:21;;;;;;;19.00;2.80;;;20.20;99.90;;;;;;5093366;28;20585;-74
2023/10/26 00:04:48;;;;;;;21.80;3.17;;;20.20;99.90;;;;;;5093563;28;20103;-75
2023/10/26 00:07:14;;;;;;;18.30;3.25;;;20.20;99.90;;;;;;5093838;28;20188;-75
2023/10/26 00:09:40;;;;;;;14.90;2.67;;;20.20;99.90;;;;;;5093470;28;20020;-76
2023/10/26 00:12:06;;;;;;;20.45;3.13;;;20.20;99.90;;;;;;5093150;28;20111;-75
2023/10/26 00:14:33;;;;;;;27.13;3.20;;;20.30;99.90;;;;;;5093324;28;20063;-75
2023/10/26 00:16:59;;;;;;;18.77;2.50;;;20.20;99.90;;;;;;5093193;28;20031;-75
2023/10/26 00:19:25;;;;;;;23.33;2.92;;;20.30;99.90;;;;;;5093182;28;20096;-75
2023/10/26 00:21:53;;;;;;;22.38;3.05;;;20.20;99.90;;;;;;5092936;28;20081;-75
2023/10/26 00:24:19;;;;;;;24.52;3.53;;;20.20;99.90;;;;;;5074774;28;20454;-74
2023/10/26 00:26:45;;;;;;;21.55;3.28;;;20.20;99.90;;;;;;5093157;28;20060;-75
2023/10/26 00:29:11;;;;;;;19.58;2.80;;;20.20;99.90;;;;;;5093542;28;20035;-75
2023/10/26 00:31:37;;;;;;;26.42;3.25;;;20.20;99.90;;;;;;5093308;28;20031;-75
2023/10/26 00:34:03;;;;;;;17.13;2.50;;;20.20;99.90;;;;;;5092899;28;20020;-75
2023/10/26 00:36:29;;;;;;;25.90;3.42;;;20.20;99.90;;;;;;5092973;28;20027;-76
2023/10/26 00:38:55;;;;;;;16.33;3.05;;;20.20;99.90;;;;;;5092826;28;20100;-75
2023/10/26 00:41:21;;;;;;;19.17;3.38;;;20.20;99.90;;;;;;5092853;28;20051;-75
2023/10/26 00:43:47;;;;;;;25.20;3.00;;;20.20;99.90;;;;;;5093307;28;20073;-76
2023/10/26 00:46:14;;;;;;;19.75;3.10;;;20.30;99.90;;;;;;5092802;28;20492;-77
2023/10/26 00:48:40;;;;;;;22.95;3.38;;;20.30;99.90;;;;;;5092683;28;20506;-76
2023/10/26 00:51:06;;;;;;;20.75;3.10;;;20.20;99.90;;;;;;5092648;28;20035;-76
2023/10/26 00:53:32;;;;;;;18.65;3.03;;;20.20;99.90;;;;;;5092627;28;20020;-76
2023/10/26 00:55:59;;;;;;;18.38;2.80;;;20.20;99.90;;;;;;5092560;28;20106;-75
2023/10/26 00:58:26;;;;;;;20.33;2.85;;;20.20;99.90;;;;;;5092511;28;20027;-75
2023/10/26 01:00:52;;;;;;;15.50;2.40;;;20.20;99.90;;;;;;5092500;28;20108;-75
2023/10/26 01:03:19;;;;;;;21.48;2.58;;;20.20;99.90;;;;;;5093006;28;20059;-75
2023/10/26 01:05:45;;;;;;;18.40;2.50;;;20.20;99.90;;;;;;5074175;28;20035;-72
2023/10/26 01:08:12;;;;;;;19.23;3.08;;;20.20;99.90;;;;;;5092760;28;20025;-75
2023/10/26 01:10:38;;;;;;;;;;;20.20;99.90;;;;;;5093086;28;20388;-75
2023/10/26 01:13:04;;;;;;;20.52;3.20;;;20.20;99.90;;;;;;5074063;28;19904;-75
2023/10/26 01:15:30;;;;;;;21.27;3.78;;;20.30;99.90;;;;;;5092950;28;20116;-76
2023/10/26 01:17:56;;;;;;;14.85;2.65;;;20.20;99.90;;;;;;5092605;28;20051;-76
2023/10/26 01:20:22;;;;;;;19.45;2.88;;;20.30;99.90;;;;;;5092728;28;20120;-76
2023/10/26 01:22:48;;;;;;;29.17;3.33;;;20.30;99.90;;;;;;5092461;28;20032;-75
2023/10/26 01:25:14;;;;;;;25.45;3.78;;;20.30;99.90;;;;;;5092944;28;20198;-75
2023/10/26 01:27:40;;;;;;;25.05;2.90;;;20.30;99.90;;;;;;5092261;28;20093;-76
2023/10/26 01:30:07;;;;;;;22.73;2.92;;;20.30;99.90;;;;;;5092311;28;20111;-76
2023/10/26 01:32:33;;;;;;;18.10;2.55;;;20.30;99.90;;;;;;5092606;28;20036;-76
2023/10/26 01:34:59;;;;;;;23.90;3.33;;;20.30;99.90;;;;;;5092399;28;20020;-77
2023/10/26 01:37:25;;;;;;;20.80;3.22;;;20.20;99.90;;;;;;5092578;28;20035;-76
2023/10/26 01:39:52;;;;;;;25.45;3.65;;;20.20;99.90;;;;;;5092610;28;20024;-75
2023/10/26 01:42:18;;;;;;;27.00;3.78;;;20.20;99.90;;;;;;5092163;28;20039;-75
2023/10/26 01:44:44;;;;;;;22.67;3.47;;;20.20;99.90;;;;;;5092765;28;20107;-76
2023/10/26 01:47:12;;;;;;;22.83;3.47;;;20.20;99.90;;;;;;5092484;28;20066;-76
2023/10/26 01:49:38;;;;;;;23.27;3.90;;;20.10;99.90;;;;;;5092612;28;20020;-75
2023/10/26 01:52:06;;;;;;;18.30;4.22;;;20.10;99.90;;;;;;5092198;28;20032;-77
2023/10/26 01:54:32;;;;;;;27.98;4.35;;;20.10;99.90;;;;;;5092146;28;20020;-77
2023/10/26 01:56:59;;;;;;;32.58;4.22;;;20.10;99.90;;;;;;5091948;28;20055;-76
2023/10/26 01:59:25;;;;;;;21.45;4.78;;;20.20;99.90;;;;;;5092585;28;20085;-77
2023/10/26 02:01:51;;;;;;;20.65;4.72;;;20.10;99.90;;;;;;5092084;28;20062;-75
2023/10/26 02:04:17;;;;;;;26.67;4.60;;;20.10;99.90;;;;;;5092386;28;20024;-76
2023/10/26 02:06:43;;;;;;;22.50;4.80;;;20.10;99.90;;;;;;5092084;28;20028;-76
2023/10/26 02:09:09;;;;;;;29.73;5.13;;;20.00;99.90;;;;;;5091902;28;20074;-76
2023/10/26 02:11:35;;;;;;;22.10;4.85;;;20.10;99.90;;;;;;5091882;28;20081;-76
2023/10/26 02:14:01;;;;;;;24.08;4.70;;;20.10;99.90;;;;;;5091936;28;20107;-76
2023/10/26 02:16:27;;;;;;;20.63;4.68;;;20.10;99.90;;;;;;5092459;28;20108;-77
2023/10/26 02:18:53;;;;;;;28.83;4.95;;;20.10;99.90;;;;;;5094962;28;20024;-76
2023/10/26 02:21:19;;;;;;;24.60;4.90;;;20.10;99.90;;;;;;5110999;28;20101;-77
2023/10/26 02:23:45;;;;;;;22.45;3.97;;;20.10;99.90;;;;;;5096078;28;20035;-77
2023/10/26 02:26:12;;;;;;;19.10;3.67;;;20.00;99.90;;;;;;5095929;28;20063;-75
2023/10/26 02:28:38;;;;;;;22.13;4.10;;;20.10;99.90;;;;;;5095334;28;20107;-77
2023/10/26 02:31:04;;;;;;;27.50;4.18;;;20.10;99.90;;;;;;5095278;28;20107;-76
2023/10/26 02:33:30;;;;;;;25.17;4.25;;;20.10;99.90;;;;;;5096028;28;20024;-75
2023/10/26 02:35:56;;;;;;;20.33;3.40;;;20.00;99.90;;;;;;5095717;28;20043;-76
2023/10/26 02:38:22;;;;;;;20.58;3.28;;;20.10;99.90;;;;;;5095141;28;20471;-75
2023/10/26 02:40:48;;;;;;;27.90;3.95;;;20.10;99.90;;;;;;5095444;28;20027;-74
2023/10/26 02:43:14;;;;;;;21.05;3.30;;;20.10;99.90;;;;;;5095090;28;20016;-76
2023/10/26 02:45:40;;;;;;;22.80;3.63;;;20.10;99.90;;;;;;5095595;28;20053;-75
2023/10/26 02:48:06;;;;;;;23.40;3.95;;;20.10;99.90;;;;;;5095003;28;20023;-76
2023/10/26 02:50:35;;;;;;;27.58;3.90;;;20.10;99.90;;;;;;5095247;28;20039;-77
2023/10/26 02:53:01;;;;;;;22.75;3.85;;;20.10;99.90;;;;;;5094491;28;20024;-75
2023/10/26 02:55:27;;;;;;;21.98;3.30;;;20.10;99.90;;;;;;5094477;28;20043;-74
2023/10/26 02:57:58;;;;;;;25.08;3.75;;;20.10;99.90;;;;;;5076080;28;20019;-73
2023/10/26 03:00:25;;;;;;;23.63;3.47;;;20.10;99.90;;;;;;5094449;28;20028;-73
2023/10/26 03:02:52;;;;;;;19.30;3.40;;;20.10;99.90;;;;;;5085615;28;20043;-75
2023/10/26 03:05:18;;;;;;;18.52;3.25;;;20.10;99.90;;;;;;5082784;28;20131;-76
2023/10/26 03:07:47;;;;;;;20.55;2.90;;;20.10;99.90;;;;;;5067950;28;20020;-75
2023/10/26 03:10:13;;;;;;;16.92;3.28;;;20.10;99.90;;;;;;5094620;28;20094;-75
2023/10/26 03:12:39;;;;;;;21.33;3.08;;;20.10;99.90;;;;;;5094247;28;20028;-76
2023/10/26 03:15:06;;;;;;;28.25;3.53;;;20.10;99.90;;;;;;5094857;28;20070;-75
2023/10/26 03:17:32;;;;;;;22.95;3.47;;;20.10;99.90;;;;;;5094374;28;20036;-76
2023/10/26 03:19:58;;;;;;;26.80;3.42;;;20.10;99.90;;;;;;5094201;28;20388;-77
2023/10/26 03:22:24;;;;;;;25.60;3.70;;;20.10;99.90;;;;;;5094969;28;20024;-77
2023/10/26 03:24:56;;;;;;;23.38;3.47;;;20.10;99.90;;;;;;5095150;28;20020;-76
2023/10/26 03:27:22;;;;;;;23.70;3.05;;;20.10;99.90;;;;;;5094833;28;20078;-75
2023/10/26 03:29:48;;;;;;;24.38;3.63;;;20.10;99.90;;;;;;5094655;28;20050;-76
2023/10/26 03:32:14;;;;;;;23.17;3.42;;;20.20;99.90;;;;;;5094658;28;20027;-75
2023/10/26 03:34:40;;;;;;;24.17;3.50;;;20.20;99.90;;;;;;5095016;28;20016;-76
2023/10/26 03:37:06;;;;;;;16.73;2.60;;;20.20;99.90;;;;;;5075482;28;20024;-75
2023/10/26 03:39:34;;;;;;;24.73;3.47;;;20.30;99.90;;;;;;5094034;28;20374;-75
2023/10/26 03:42:00;;;;;;;30.00;3.50;;;20.30;99.90;;;;;;5094086;28;20074;-74
2023/10/26 03:44:26;;;;;;;22.83;3.28;;;20.30;99.90;;;;;;5094327;28;20028;-76
2023/10/26 03:46:52;;;;;;;19.25;3.10;;;20.30;99.90;;;;;;5094346;28;20059;-76
2023/10/26 03:49:19;;;;;;;17.65;2.97;;;20.30;99.90;;;;;;5075686;28;20047;-76
2023/10/26 03:51:46;;;;;;;23.80;3.55;;;20.30;99.90;;;;;;5093752;28;20067;-77
2023/10/26 03:54:12;;;;;;;23.65;3.20;;;20.40;99.90;;;;;;5093687;28;20534;-76
2023/10/26 03:56:38;;;;;;;23.58;3.50;;;20.40;99.90;;;;;;5093892;28;20020;-75
2023/10/26 03:59:05;;;;;;;21.73;3.45;;;20.40;99.90;;;;;;5093595;28;20379;-76
2023/10/26 04:01:31;;;;;;;30.35;3.47;;;20.50;99.90;;;;;;5094001;28;20073;-77
2023/10/26 04:03:57;;;;;;;19.95;3.13;;;20.50;99.90;;;;;;5094091;28;20028;-76
2023/10/26 04:06:23;;;;;;;22.30;3.72;;;20.50;99.90;;;;;;5094085;28;20023;-76
2023/10/26 04:08:49;;;;;;;19.13;2.75;;;20.40;99.90;;;;;;5079253;28;20036;-74
2023/10/26 04:11:17;;;;;;;16.08;2.90;;;20.40;99.90;;;;;;5081957;28;20036;-75
2023/10/26 04:13:43;;;;;;;21.50;4.05;;;20.40;99.90;;;;;;5093128;28;20032;-77
2023/10/26 04:16:11;;;;;;;27.85;3.28;;;20.40;99.90;;;;;;5093147;28;20054;-77
2023/10/26 04:18:37;;;;;;;21.67;3.63;;;20.30;99.90;;;;;;5074959;28;20029;-77
2023/10/26 04:21:04;;;;;;;22.35;3.85;;;20.30;99.90;;;;;;5073284;28;20036;-75
2023/10/26 04:23:30;;;;;;;20.67;3.35;;;20.30;99.90;;;;;;5073375;28;20036;-75
2023/10/26 04:25:56;;;;;;;23.77;3.22;;;20.30;99.90;;;;;;5073397;28;20075;-76
2023/10/26 04:28:24;;;;;;;16.38;3.38;;;20.30;99.90;;;;;;5077700;28;20112;-76
2023/10/26 04:30:50;;;;;;;18.52;3.17;;;20.20;99.90;;;;;;5072572;28;20384;-74
2023/10/26 04:33:17;;;;;;;23.80;4.60;;;20.20;99.90;;;;;;5094726;28;20024;-75
2023/10/26 04:35:44;;;;;;;17.70;3.60;;;20.20;99.90;;;;;;5093790;28;20024;-76
2023/10/26 04:38:11;;;;;;;15.30;3.38;;;19.80;99.90;;;;;;5093481;28;20031;-76
2023/10/26 04:40:40;;;;;;;;;;;19.80;99.90;;;;;;5093144;28;20024;-75
2023/10/26 04:43:07;;;;;;;16.40;3.15;;;19.80;99.90;;;;;;5093180;28;19911;-76
2023/10/26 04:45:34;;;;;;;16.30;2.58;;;19.80;99.90;;;;;;5093295;28;20491;-76
2023/10/26 04:48:00;;;;;;;15.60;2.58;;;19.80;99.90;;;;;;5093732;28;20066;-76
2023/10/26 04:50:27;;;;;;;;;;;19.70;99.90;;;;;;5093479;28;20468;-76
2023/10/26 04:52:53;;;;;;;13.13;2.40;;;19.70;99.90;;;;;;5093081;28;19969;-78
2023/10/26 04:55:19;;;;;;;13.20;2.08;;;19.60;99.90;;;;;;5093462;28;20059;-77
2023/10/26 04:57:45;;;;;;;14.38;2.28;;;19.60;99.90;;;;;;5092973;28;20111;-76
2023/10/26 05:00:12;;;;;;;13.95;2.25;;;19.50;99.90;;;;;;5074876;28;20430;-76
2023/10/26 05:02:42;;;;;;;15.45;2.63;;;19.50;99.90;;;;;;5074736;28;20066;-76
2023/10/26 05:05:08;;;;;;;13.75;2.17;;;19.50;99.90;;;;;;5092986;28;20028;-76
2023/10/26 05:07:34;;;;;;;25.73;2.80;;;19.40;99.90;;;;;;5074713;28;20482;-77
2023/10/26 05:10:00;;;;;;;16.35;2.45;;;19.50;99.90;;;;;;5074473;28;20483;-76
2023/10/26 05:12:26;;;;;;;19.05;3.55;;;19.50;99.90;;;;;;5092992;28;20410;-77
2023/10/26 05:14:52;;;;;;;16.33;2.90;;;19.50;99.90;;;;;;5092834;28;20074;-76
2023/10/26 05:17:18;;;;;;;25.20;3.03;;;19.60;99.90;;;;;;5092719;28;20028;-75
2023/10/26 05:19:45;;;;;;;30.92;2.75;;;19.60;99.90;;;;;;5092281;28;20013;-77
2023/10/26 05:22:11;;;;;;;25.00;3.58;;;19.70;99.90;;;;;;5093292;28;20076;-77
2023/10/26 05:24:38;;;;;;;23.92;3.22;;;19.70;99.90;;;;;;5093150;28;20035;-75
2023/10/26 05:27:05;;;;;;;20.20;3.00;;;19.70;99.90;;;;;;5093005;28;20032;-76
2023/10/26 05:29:31;;;;;;;17.50;3.10;;;19.80;99.90;;;;;;5093181;28;20024;-77
2023/10/26 05:31:57;;;;;;;23.17;3.20;;;19.80;99.90;;;;;;5092095;28;20040;-76
2023/10/26 05:34:23;;;;;;;22.20;3.55;;;19.80;99.90;;;;;;5092652;28;20553;-74
2023/10/26 05:36:49;;;;;;;26.65;2.88;;;19.90;99.90;;;;;;5092851;28;20036;-75
2023/10/26 05:39:15;;;;;;;17.80;2.78;;;20.00;99.90;;;;;;5092631;28;20093;-76
2023/10/26 05:41:43;;;;;;;24.42;3.40;;;20.00;99.90;;;;;;5091730;28;20020;-76
2023/10/26 05:44:09;;;;;;;20.90;3.28;;;20.00;99.90;;;;;;5073639;28;20115;-76
2023/10/26 05:46:36;;;;;;;15.90;2.45;;;20.00;99.90;;;;;;5091817;28;20055;-76
2023/10/26 05:49:02;;;;;;;25.55;3.38;;;20.10;99.90;;;;;;5091988;28;20024;-77
2023/10/26 05:51:29;;;;;;;22.63;3.42;;;20.20;99.90;;;;;;5070598;28;20479;-77
2023/10/26 05:53:55;;;;;;;26.83;3.75;;;20.20;99.90;;;;;;5093287;28;20032;-77
2023/10/26 05:56:21;;;;;;;18.55;2.78;;;20.20;99.90;;;;;;5084181;28;20028;-78
2023/10/26 05:58:51;;;;;;;19.33;3.22;;;20.20;99.90;;;;;;5076631;28;20032;-77
2023/10/26 06:01:18;;;;;;;21.95;3.45;;;20.30;99.90;;;;;;5092459;28;20521;-78
2023/10/26 06:03:45;;;;;;;22.55;3.53;;;20.40;99.90;;;;;;5086223;28;20506;-78
2023/10/26 06:06:11;;;;;;;28.85;3.35;;;20.30;99.90;;;;;;5095047;28;20482;-76
2023/10/26 06:08:37;;;;;;;18.30;3.65;;;20.30;99.90;;;;;;5095385;28;20027;-76
2023/10/26 06:11:04;;;;;;;19.55;3.95;;;20.20;99.90;;;;;;5091021;28;20456;-76
2023/10/26 06:13:30;;;;;;;15.70;4.63;;;20.20;99.90;;;;;;5086201;28;20020;-74
2023/10/26 06:15:56;;;;;;;;;;;20.10;99.90;;;;;;5096505;28;20024;-72
2023/10/26 06:18:22;;;;;;;18.02;4.93;;;20.20;99.90;;;;;;5096033;28;19927;-74
2023/10/26 06:21:01;;;;;;;14.05;4.45;;;20.20;99.90;;;;;;5095181;28;20118;-78
2023/10/26 06:23:28;;;;;;;19.55;5.45;;;20.30;99.90;;;;;;5095333;28;20028;-78
2023/10/26 06:26:01;;;;;;;17.25;4.20;;;20.30;99.90;;;;;;5095585;28;20375;-76
2023/10/26 06:28:28;;;;;;;17.80;5.40;;;20.20;99.90;;;;;;5076860;28;20048;-76
2023/10/26 06:30:54;;;;;;;18.23;4.63;;;20.20;99.90;;;;;;5094646;28;20126;-76
2023/10/26 06:33:21;;;;;;;18.15;4.55;;;20.30;99.90;;;;;;5094586;28;20357;-77
2023/10/26 06:35:48;;;;;;;12.98;4.53;;;20.40;99.90;;;;;;5094469;28;20035;-76
2023/10/26 06:38:15;;;;;;;16.08;4.45;;;20.50;99.90;;;;;;5094963;28;20070;-75
2023/10/26 06:40:41;;;;;;;18.88;4.15;;;20.60;99.90;;;;;;5094908;28;20021;-78
2023/10/26 06:43:07;;;;;;;14.32;3.42;;;20.60;99.90;;;;;;5094540;28;20025;-77
2023/10/26 06:45:33;;;;;;;16.58;3.72;;;20.60;99.90;;;;;;5094489;28;20460;-77
2023/10/26 06:47:59;;;;;;;;;;;20.60;99.90;;;;;;5094775;28;20055;-76
2023/10/26 06:50:25;;;;;;;16.15;3.33;;;20.50;99.90;;;;;;5094849;28;20376;-76
2023/10/26 06:52:52;;;;;;;16.77;3.38;;;20.60;99.90;;;;;;5094524;28;20088;-76
2023/10/26 06:55:18;;;;;;;13.27;2.90;;;20.60;99.90;;;;;;5094604;28;20076;-73
2023/10/26 06:57:44;;;;;;;12.38;2.55;;;20.50;99.90;;;;;;5094233;28;20146;-73
2023/10/26 07:00:10;;;;;;;11.90;2.78;;;20.60;99.90;;;;;;5094105;28;20028;-73
2023/10/26 07:02:39;;;;;;;14.27;2.63;;;20.80;99.90;;;;;;5094038;28;20149;-75
2023/10/26 07:05:06;;;;;;;8.13;1.90;;;21.40;99.90;;;;;;5093523;28;20089;-73
2023/10/26 07:07:36;;;;;;;20.60;3.13;;;22.00;99.90;;;;;;5093808;28;20395;-72
2023/10/26 07:10:02;;;;;;;10.95;2.28;;;22.30;99.90;;;;;;5093566;28;20043;-73
2023/10/26 07:12:30;;;;;;;19.17;2.85;;;22.20;99.90;;;;;;5075304;28;20031;-74
2023/10/26 07:14:57;;;;;;;14.40;2.63;;;22.00;99.90;;;;;;5075397;28;20024;-75
2023/10/26 07:17:24;;;;;;;16.25;2.58;;;21.70;99.90;;;;;;5075477;28;20090;-74
2023/10/26 07:19:53;;;;;;;19.55;2.90;;;21.60;99.90;;;;;;5074983;28;20338;-75
2023/10/26 07:22:19;;;;;;;16.70;3.00;;;21.40;99.90;;;;;;5075442;28;20067;-75
2023/10/26 07:24:45;;;;;;;23.02;2.70;;;21.40;99.90;;;;;;5093448;28;20076;-75
2023/10/26 07:27:12;;;;;;;13.00;2.45;;;21.40;99.90;;;;;;5093805;28;20107;-76
2023/10/26 07:29:38;;;;;;;16.45;2.65;;;21.30;99.90;;;;;;5093458;28;20472;-74
2023/10/26 07:32:04;;;;;;;14.65;2.47;;;21.20;99.90;;;;;;5093268;28;20044;-74
2023/10/26 07:34:30;;;;;;;15.13;2.50;;;21.20;99.90;;;;;;5093490;28;20016;-74
2023/10/26 07:36:57;;;;;;;12.07;2.25;;;21.40;99.90;;;;;;5109107;28;20423;-73
2023/10/26 07:39:23;;;;;;;;;;;21.50;99.90;;;;;;5093842;28;20024;-73
2023/10/26 07:41:49;;;;;;;16.90;3.05;;;21.70;99.90;;;;;;5093181;28;19904;-74
2023/10/26 07:44:15;;;;;;;19.52;3.58;;;21.70;99.90;;;;;;5093193;28;20081;-75
2023/10/26 07:46:41;;;;;;;18.05;2.63;;;21.70;99.90;;;;;;5093672;28;20024;-72
2023/10/26 07:49:08;;;;;;;20.00;2.28;;;21.60;99.90;;;;;;5074593;28;20024;-75
2023/10/26 07:51:35;;;;;;;17.70;2.42;;;21.60;99.90;;;;;;5092655;28;20115;-72
2023/10/26 07:54:01;;;;;;;28.25;2.78;;;21.80;99.90;;;;;;5092973;28;20024;-74
2023/10/26 07:56:29;;;;;;;16.20;3.05;;;21.80;99.90;;;;;;5092552;28;20032;-74
2023/10/26 07:58:55;;;;;;;18.35;2.83;;;21.90;99.90;;;;;;5092249;28;20047;-74
2023/10/26 08:01:21;;;;;;;15.63;2.20;;;22.10;99.90;;;;;;5092574;28;20024;-76
2023/10/26 08:03:48;;;;;;;23.77;3.20;;;22.20;99.90;;;;;;5092558;28;20039;-76
2023/10/26 08:06:14;;;;;;;15.98;2.85;;;22.40;99.90;;;;;;5092360;28;20028;-76
2023/10/26 08:08:40;;;;;;;14.13;2.38;;;22.50;99.90;;;;;;5092895;28;20028;-74
2023/10/26 08:11:14;;;;;;;17.90;2.70;;;22.80;99.90;;;;;;5092026;28;20038;-74
2023/10/26 08:13:40;;;;;;;10.40;2.35;;;23.10;99.90;;;;;;5092170;28;20302;-75
2023/10/26 08:16:07;;;;;;;14.77;2.45;;;23.50;99.90;;;;;;5091206;28;20024;-74
2023/10/26 08:18:33;;;;;;;15.82;2.42;;;24.00;99.90;;;;;;5092711;28;20024;-73
2023/10/26 08:20:59;;;;;;;;;;;24.20;99.90;;;;;;5092980;28;20109;-74
2023/10/26 08:23:29;;;;;;;;;;;24.50;99.90;;;;;;5092857;28;19904;-74
2023/10/26 08:25:56;;;;;;;17.10;1.90;;;24.90;99.90;;;;;;5074746;28;19990;-75
2023/10/26 08:28:22;;;;;;;14.38;2.13;;;24.80;99.90;;;;;;5073944;28;20532;-74
2023/10/26 08:30:48;;;;;;;18.33;2.40;;;24.60;99.90;;;;;;5092273;28;20036;-73
2023/10/26 08:33:15;;;;;;;14.43;2.78;;;24.90;99.90;;;;;;5092477;28;20443;-75
2023/10/26 08:35:48;;;;;;;;;;;25.30;99.90;;;;;;5092625;28;20024;-74
2023/10/26 08:38:15;;;;;;;15.98;2.90;;;25.30;99.90;;;;;;5092841;28;19904;-74
2023/10/26 08:40:51;;;;;;;12.13;2.67;;;25.50;99.90;;;;;;5092297;28;20038;-74
2023/10/26 08:43:18;;;;;;;16.30;3.15;;;25.50;99.90;;;;;;5092143;28;20031;-74
2023/10/26 08:45:45;;;;;;;20.27;2.78;;;25.70;99.90;;;;;;5091953;28;20103;-74
2023/10/26 08:48:18;;;;;;;13.45;2.08;;;25.70;99.90;;;;;;5091883;28;20016;-74
2023/10/26 08:50:48;;;;;;;18.58;2.25;;;25.50;99.90;;;;;;5091644;28;20032;-73
2023/10/26 08:53:15;;;;;;;17.90;2.80;;;24.60;99.90;;;;;;5091546;28;20024;-75
2023/10/26 08:55:43;;;;;;;19.05;2.33;;;24.40;99.90;;;;;;5092002;28;20021;-74
2023/10/26 08:58:09;;;;;;;15.13;2.33;;;24.60;99.90;;;;;;5089182;28;20621;-74
2023/10/26 09:00:40;;;;;;;18.90;2.95;;;24.70;99.90;;;;;;5071437;28;20125;-75
2023/10/26 09:03:08;;;;;;;16.48;2.45;;;24.50;99.90;;;;;;5083745;28;20472;-73
2023/10/26 09:05:52;;;;;;;21.17;3.47;;;23.90;99.90;;;;;;5073766;28;20028;-74
2023/10/26 09:08:20;;;;;;;15.23;2.83;;;23.80;99.90;;;;;;5091226;28;20032;-73
2023/10/26 09:10:46;;;;;;;16.35;2.47;;;24.00;99.90;;;;;;5090823;28;20089;-74
2023/10/26 09:13:14;;;;;;;14.88;2.22;;;24.10;99.90;;;;;;5091598;28;20024;-73
2023/10/26 09:15:48;;;;;;;15.20;2.42;;;23.90;99.90;;;;;;5086424;28;20393;-71
2023/10/26 09:18:17;;;;;;;17.27;2.47;;;24.10;99.90;;;;;;5091870;28;20034;-74
2023/10/26 09:21:04;;;;;;;23.27;2.78;;;24.20;99.90;;;;;;5091510;28;20101;-74
2023/10/26 09:23:32;;;;;;;26.95;2.92;;;24.40;99.90;;;;;;5072028;28;20054;-74
2023/10/26 09:26:00;;;;;;;20.77;2.38;;;24.80;99.90;;;;;;5071319;28;20388;-75
2023/10/26 09:28:26;;;;;;;15.77;2.10;;;24.90;99.90;;;;;;5075212;28;20392;-73
2023/10/26 09:30:59;;;;;;;12.15;2.28;;;24.80;99.90;;;;;;5075080;28;20040;-73
2023/10/26 09:33:26;;;;;;;16.75;2.72;;;24.80;99.90;;;;;;5075100;28;20506;-73
2023/10/26 09:35:52;;;;;;;16.08;2.75;;;24.80;99.90;;;;;;5074850;28;20062;-74
2023/10/26 09:38:52;;;;;;;10.80;1.90;;;24.90;99.90;;;;;;5074633;28;20111;-76
2023/10/26 09:41:19;;;;;;;18.02;2.55;;;25.20;99.90;;;;;;5002471;28;20505;-72
2023/10/26 09:43:46;;;;;;;22.63;3.17;;;25.00;99.90;;;;;;5012644;28;20323;-73
2023/10/26 09:46:13;;;;;;;21.98;3.40;;;25.10;99.90;;;;;;5013220;28;20026;-74
2023/10/26 09:48:40;;;;;;;12.55;2.45;;;25.00;99.90;;;;;;5012790;28;20090;-75
2023/10/26 09:51:07;;;;;;;19.58;2.70;;;24.70;99.90;;;;;;5012776;28;20048;-73
2023/10/26 09:53:36;;;;;;;13.45;2.38;;;24.60;99.90;;;;;;5013264;28;20030;-73
2023/10/26 09:56:04;;;;;;;14.30;2.75;;;24.60;99.90;;;;;;4996304;28;20034;-73
2023/10/26 09:58:48;;;;;;;14.90;2.00;;;24.30;99.90;;;;;;5012485;28;20594;-72
2023/10/26 10:01:37;;;;;;;14.68;2.22;;;24.10;99.90;;;;;;5012391;28;20026;-73
2023/10/26 10:04:05;;;;;;;15.25;2.22;;;24.00;99.90;;;;;;5012357;28;20110;-78
2023/10/26 10:06:50;;;;;;;17.90;2.45;;;24.10;99.90;;;;;;4996457;28;20408;-75
2023/10/26 10:09:22;;;;;;;20.20;2.80;;;24.30;99.90;;;;;;5012709;28;20498;-70
2023/10/26 10:12:09;;;;;;;20.80;3.22;;;24.30;99.90;;;;;;5012353;28;20049;-72
2023/10/26 10:14:54;;;;;;;19.52;2.63;;;24.00;99.90;;;;;;5012319;28;20038;-79
2023/10/26 10:17:22;;;;;;;24.50;4.05;;;24.00;99.90;;;;;;5038406;28;20071;-77
2023/10/26 10:20:14;;;;;;;15.15;2.50;;;24.00;99.90;;;;;;5075910;28;20040;-77
2023/10/26 10:22:50;;;;;;;15.10;2.50;;;24.00;99.90;;;;;;5074581;28;20033;-76
2023/10/26 10:25:18;;;;;;;14.60;2.55;;;24.10;99.90;;;;;;5076782;28;20024;-76
2023/10/26 10:27:50;;;;;;;21.23;3.15;;;24.30;99.90;;;;;;5074550;28;20031;-76
2023/10/26 10:30:27;;;;;;;23.92;3.15;;;24.40;99.90;;;;;;5074029;28;20484;-76
2023/10/26 10:32:56;;;;;;;16.92;2.33;;;24.40;99.90;;;;;;5074310;28;20050;-76
2023/10/26 10:35:22;;;;;;;23.80;3.30;;;24.30;99.90;;;;;;5092490;28;20016;-76
2023/10/26 10:38:12;;;;;;;21.27;2.65;;;24.30;99.90;;;;;;5094035;28;20035;-76
2023/10/26 10:40:40;;;;;;;19.80;2.50;;;24.40;99.90;;;;;;5093963;28;20533;-75
2023/10/26 10:43:06;;;;;;;19.42;2.20;;;24.60;99.90;;;;;;5094069;28;20024;-75
2023/10/26 10:45:32;;;;;;;16.75;2.60;;;24.80;99.90;;;;;;5094294;28;20167;-75
2023/10/26 10:47:58;;;;;;;20.45;2.60;;;25.20;99.90;;;;;;5094114;28;20031;-74
2023/10/26 10:50:26;;;;;;;13.40;2.30;;;25.40;99.90;;;;;;5094387;28;20024;-76
2023/10/26 10:52:56;;;;;;;14.38;2.55;;;25.50;99.90;;;;;;5094177;28;20052;-76
2023/10/26 10:55:29;;;;;;;16.27;2.40;;;25.70;99.90;;;;;;5094011;28;20024;-75
2023/10/26 10:58:02;;;;;;;18.60;2.65;;;25.40;99.90;;;;;;5093651;28;20031;-76
2023/10/26 11:00:42;;;;;;;16.92;2.55;;;25.20;99.90;;;;;;5094121;28;20476;-76
2023/10/26 11:03:09;;;;;;;15.35;2.60;;;25.30;99.90;;;;;;5061153;28;20027;-76
2023/10/26 11:05:40;;;;;;;16.55;2.95;;;25.10;99.90;;;;;;5073877;28;20115;-76
2023/10/26 11:08:09;;;;;;;21.90;3.75;;;25.00;99.90;;;;;;5073385;28;20025;-76
2023/10/26 11:10:36;;;;;;;22.95;3.25;;;25.10;99.90;;;;;;5082347;28;20032;-75
2023/10/26 11:13:03;;;;;;;15.18;2.53;;;25.20;99.90;;;;;;5073310;28;20013;-76
2023/10/26 11:15:34;;;;;;;13.90;2.92;;;25.20;99.90;;;;;;5072552;28;20021;-75
2023/10/26 11:18:01;;;;;;;24.75;3.20;;;24.90;99.90;;;;;;5073008;28;20082;-76
2023/10/26 11:20:41;;;;;;;20.02;3.28;;;24.70;99.90;;;;;;5073113;28;20048;-74
2023/10/26 11:23:09;;;;;;;16.77;2.95;;;24.80;99.90;;;;;;5073569;28;20107;-74
2023/10/26 11:25:36;;;;;;;19.55;3.25;;;24.50;99.90;;;;;;5073294;28;20028;-73
2023/10/26 11:28:03;;;;;;;20.02;3.47;;;24.50;99.90;;;;;;5073293;28;20051;-73
2023/10/26 11:30:30;;;;;;;18.60;4.07;;;24.60;99.90;;;;;;5073475;28;20380;-73
2023/10/26 11:32:56;;;;;;;18.23;4.05;;;24.90;99.90;;;;;;5073513;28;20024;-72
2023/10/26 11:35:25;;;;;;;20.92;4.25;;;25.40;99.90;;;;;;5073484;28;20025;-74
2023/10/26 11:37:55;;;;;;;21.67;5.47;;;25.50;99.90;;;;;;5072854;28;20082;-73
2023/10/26 11:40:31;;;;;;;20.65;3.95;;;25.50;99.90;;;;;;5074331;28;20020;-72
2023/10/26 11:43:02;;;;;;;27.83;5.40;;;25.50;99.90;;;;;;5074607;28;20032;-72
2023/10/26 11:45:29;;;;;;;26.02;6.07;;;25.60;99.90;;;;;;5093240;28;20084;-71
2023/10/26 11:47:57;;;;;;;23.38;5.05;;;25.70;99.90;;;;;;5092862;28;20020;-72
2023/10/26 11:50:31;;;;;;;30.08;7.10;;;25.90;99.90;;;;;;5091360;28;20102;-72
2023/10/26 11:52:59;;;;;;;19.63;4.80;;;25.80;99.90;;;;;;5093330;28;20107;-72
2023/10/26 11:55:27;;;;;;;22.45;4.50;;;25.90;99.90;;;;;;5093174;28;20020;-74
2023/10/26 11:57:57;;;;;;;21.85;6.10;;;26.20;99.90;;;;;;5074556;28;20414;-73
2023/10/26 12:00:24;;;;;;;17.52;3.85;;;26.10;99.90;;;;;;5092626;28;20119;-72
2023/10/26 12:02:50;;;;;;;20.85;5.35;;;25.80;99.90;;;;;;5093093;28;20024;-74
2023/10/26 12:05:19;;;;;;;20.35;3.70;;;25.60;99.90;;;;;;5093000;28;20498;-74
2023/10/26 12:07:46;;;;;;;19.33;3.42;;;25.50;99.90;;;;;;5092505;28;20020;-75
2023/10/26 12:10:14;;;;;;;24.85;4.38;;;25.40;99.90;;;;;;5093459;28;20024;-73
2023/10/26 12:12:41;;;;;;;15.15;3.88;;;25.60;99.90;;;;;;5086101;28;20044;-75
2023/10/26 12:15:08;;;;;;;16.98;4.50;;;25.70;99.90;;;;;;5093562;28;20016;-75
2023/10/26 12:17:35;;;;;;;17.70;3.20;;;25.70;99.90;;;;;;5088481;28;20077;-75
2023/10/26 12:20:02;;;;;;;18.05;2.97;;;25.60;99.90;;;;;;5093351;28;20096;-75
2023/10/26 12:22:29;;;;;;;13.95;2.67;;;25.60;99.90;;;;;;5093583;28;20028;-75
2023/10/26 12:24:55;;;;;;;15.63;2.60;;;25.30;99.90;;;;;;5093306;28;20024;-75
2023/10/26 12:27:22;;;;;;;10.88;2.30;;;25.50;99.90;;;;;;5093539;28;20028;-75
2023/10/26 12:29:48;;;;;;;13.45;2.58;;;25.40;99.90;;;;;;5093525;28;20073;-75
2023/10/26 12:32:15;;;;;;;;;;;25.40;99.90;;;;;;5094398;28;20043;-74
2023/10/26 12:34:41;;;;;;;15.75;3.67;;;25.20;99.90;;;;;;5093532;28;19910;-76
2023/10/26 12:37:07;;;;;;;16.70;2.97;;;25.20;99.90;;;;;;5093293;28;20023;-76
2023/10/26 12:39:34;;;;;;;17.85;3.13;;;25.10;99.90;;;;;;5093271;28;20032;-74
2023/10/26 12:42:00;;;;;;;9.88;2.08;;;25.10;99.90;;;;;;5093703;28;20031;-76
2023/10/26 12:44:26;;;;;;;12.15;2.17;;;25.00;99.90;;;;;;5093067;28;20034;-75